< Typhoon 202017 2020 Season Typhoon 202019 >
Typhoon 202018 (MOLAVE)
General InformationDetailed Track InformationTrack Information on Google MapsForecast History on Google MapsAccess Analytics MapList of All Images || NewsDisaster Info.WeblogTrackbackTyphoon FrontTwiphoonTyphoon Now!Typhoon ImaginationJMA Disaster Info. XMLResourceGoogle EarthGE AnimationAtom FeedGeoJSON
Detalied Best Track Wind (Time Zone = UTC)
Year Month Day Hour Lat. Long. Wind (kt) Gust (kt) Direc. of Major Storm Axis Radius of Major Storm Axis (nm) Radius of Minor Storm Axis (nm) Direc. of Major Gale Axis Radius of Major Gale Axis (nm) Radius of Minor Gale Axis (nm) Image
2020 10 23 12 10.7 133.4 30 45 - - - - - - Image
2020 10 23 15 10.7 133.3 30 45 - - - - - - Image
2020 10 23 18 11.3 132.5 30 45 - - - - - - Image
2020 10 23 21 11.6 132.0 30 45 - - - - - - Image
2020 10 24 00 11.8 131.4 30 45 - - - - - - Image
2020 10 24 03 12.7 130.5 30 45 - - - - - - Image
2020 10 24 06 13.1 130.1 30 45 - - - - - - Image
2020 10 24 09 13.1 129.6 30 45 - - - - - - Image
2020 10 24 12 13.3 128.8 30 45 - - - - - - Image
2020 10 24 15 13.3 128.5 30 45 - - - - - - Image
2020 10 24 18 13.4 127.8 35 50 - - - NE 120 90 Image
2020 10 24 21 13.5 127.1 35 50 - - - NE 120 90 Image
2020 10 25 00 13.5 126.4 45 65 - - - NE 120 90 Image
2020 10 25 03 13.4 125.7 45 65 - - - NE 120 90 Image
2020 10 25 06 13.4 124.7 55 80 symmetric 30 30 NE 120 90 Image
2020 10 25 09 13.4 124.3 65 95 symmetric 40 40 NE 120 90 Image
2020 10 25 12 13.5 123.2 65 95 symmetric 40 40 NE 120 90 Image
2020 10 25 15 13.3 122.3 65 95 symmetric 40 40 NE 120 90 Image
2020 10 25 18 13.3 121.9 65 95 symmetric 40 40 NE 120 90 Image
2020 10 25 21 13.2 121.3 65 95 symmetric 40 40 NE 120 90 Image
2020 10 26 00 13.2 120.4 65 95 symmetric 40 40 NE 120 90 Image
2020 10 26 03 13.3 119.5 65 95 symmetric 40 40 symmetric 150 150 Image
2020 10 26 06 13.5 118.8 65 95 symmetric 40 40 symmetric 150 150 Image
2020 10 26 09 13.6 118.0 65 95 symmetric 40 40 symmetric 150 150 Image
2020 10 26 12 13.4 117.5 70 100 symmetric 60 60 symmetric 150 150 Image
2020 10 26 15 13.2 116.7 70 100 symmetric 50 50 N 180 150 Image
2020 10 26 21 13.4 115.4 75 105 symmetric 50 50 N 180 150 Image
2020 10 27 00 13.3 114.8 80 115 symmetric 50 50 N 180 150 Image
2020 10 27 03 13.3 113.8 85 120 symmetric 60 60 N 240 180 Image
2020 10 27 06 13.3 113.4 85 120 symmetric 60 60 N 240 180 Image
2020 10 27 09 13.6 112.7 85 120 symmetric 60 60 N 240 180 Image
2020 10 27 15 13.5 111.7 85 120 symmetric 60 60 N 240 180 Image
2020 10 27 18 13.9 111.0 85 120 E 90 60 N 240 210 Image
2020 10 27 21 14.3 110.2 85 120 E 90 60 symmetric 240 240 Image
2020 10 28 00 14.5 109.8 80 115 E 90 60 symmetric 240 240 Image
2020 10 28 03 14.8 109.2 75 105 E 90 60 symmetric 240 240 Image
2020 10 28 06 15.2 108.7 70 100 E 90 60 E 300 210 Image
2020 10 28 09 15.2 107.8 65 95 E 90 60 E 300 210 Image
2020 10 28 12 15.2 107.2 50 70 - - - E 210 120 Image
2020 10 28 15 15.2 106.7 40 60 - - - E 180 90 Image
2020 10 28 18 15.3 105.7 35 50 - - - E 180 90 Image
2020 10 28 21 15.4 105.2 35 50 - - - E 180 90 Image
2020 10 29 00 15.0 105.0 0 0 - - - - - - Image
Japan Meteorological Agency Best Track Data | Correction Date : 2020-10-29
< Typhoon 202017 2020 Season Typhoon 202019 >

Help